Rock Creek, OH (44084)

12:57 PM EDT on August 25, 2016 (GMT -0400)
| | Change Station

Elev -9999 ft 0.00 °N, 0.00 °E | Updated

Mostly Cloudy
Mostly Cloudy
84 °F
Feels Like 91 °F
N
8
Wind Variable Wind from SW
Gusts 12 mph

Today
High -- | Low -- °F
--% Chance of Precip.
Yesterday
High -- | Low -- °F
Precip. -- in
Pressure 30.01 in
Visibility 10.0 miles
Clouds Few 2400 ft
Scattered Clouds 3200 ft
Heat Index 91 °F
Dew Point 73 °F
Humidity 69%
Rainfall --
Snow Depth Not available.
6:42 AM 8:07 PM
Last Quarter, 44% visible
METAR KHZY 251653Z AUTO 22007KT 10SM FEW024 SCT032 28/24 A3004 RMK AO2 SLP162 T02780239
Pressure 30.01 in
Visibility 10.0 miles
Clouds Few 2400 ft
Scattered Clouds 3200 ft
Heat Index 91 °F
Dew Point 73 °F
Humidity 69%
Rainfall --
Snow Depth Not available.
6:42 AM 8:07 PM
Last Quarter, 44% visible
METAR KHZY 251653Z AUTO 22007KT 10SM FEW024 SCT032 28/24 A3004 RMK AO2 SLP162 T02780239

10-Day Weather Forecast

Almanac

Astronomy

Aug. 25, 2016 Rise Set
Actual Time
Civil Twilight
Nautical Twilight
Astronomical Twilight
Moon
Length of Visible Light
Length of Day
Tomorrow will be .
, % of the Moon is Illuminated

Today's Extremes

State Highs State Lows

Community

WunderPhotos

Upload Photos

1,934,869 photos uploaded!

WunderBlog® & News

Nearby

Air Quality

  Air Quality AQ Index Pollutant
Not available.

Snow Depth

Station Depth Elevation

Earthquake Activity

City Distance Mag. Time & Date
Minimum magnitude displayed is 2.5.

Coastal Water Temperatures

Place Temperature

Stations

Nearby Weather Stations

Station Location Temp. Windchill Dew Point Humidity Wind Precip. Elev Updated Type
                   

Watches & Warnings

There are currently no watches in effect.